• Join FlightAware (Why Join?)
  • Login
  • US Flag GB Flag 
09:08 EST


 

Airport Tracker/Info


-or-


 

Live Flight TrackerFlight Track Log ✈ N449ND ✈ 01-Jul-2014 ✈ KFPR - KFPR

Flight Track Log - Related Links

Times and Time Zones

All times are in EDT time to prevent confusion due to time zone crossing. See the N449ND flight status page for this flight to view local times or setup timezone preferences in your user account.

Time Position Orientation Groundspeed Altitude Reporting Facility
EDT Latitude Longitude Course Direction KTS MPH feet Rate Location/Type
20:51 27.4989 -80.3756 152° Southeast 71 82 300  Level Miami Center
20:52 27.4933 -80.3997 255° West 97 112 900 540 Climbing Miami Center
20:53 27.4725 -80.4186 219° Southwest 97 112 1,400 540 Climbing Miami Center
20:54 27.4511 -80.4394 221° Southwest 98 113 2,000 300 Climbing Miami Center
20:55 27.4419 -80.4669 249° West 102 117 2,100 120 Climbing Miami Center
20:56 27.4975 -80.3726 152° Southeast  Level Estimated
20:56 27.4222 -80.4928 229° Southwest 117 135 2,300  Level Miami Center
20:57 27.4056 -80.4717 132° Southeast 103 119 2,800 360 Climbing Miami Center
20:58 27.4072 -80.4444 86° East 92 106 3,100 120 Climbing Miami Center
20:59 27.4200 -80.4139 65° Northeast 102 117 3,100  Level Miami Center
21:00 27.4328 -80.3900 59° Northeast 97 112 3,100  Level Miami Center
21:01 27.4411 -80.3586 73° East 98 113 3,100  Level Miami Center
21:02 27.4519 -80.3303 67° East 99 114 3,100  Level Miami Center
21:03 27.4681 -80.3106 47° Northeast 91 105 3,100  Level Miami Center
21:04 27.4839 -80.2872 53° Northeast 91 105 3,100  Level Miami Center
21:05 27.5039 -80.2706 36° Northeast 89 102 3,100  Level Miami Center
21:06 27.5136 -80.2450 67° East 90 104 3,100  Level Miami Center
21:07 27.5367 -80.2364 18° North 84 97 3,100  Level Miami Center
21:08 27.5581 -80.2258 24° Northeast 83 96 3,200 60 Climbing Miami Center
21:09 27.5714 -80.2106 45° Northeast 87 100 3,300 -60 Climbing Miami Center
21:10 27.5689 -80.1764 95° East 104 120 3,100 -120 Descending Miami Center
21:11 27.5478 -80.1597 145° Southeast 128 147 3,100  Level Miami Center
21:12 27.5492 -80.1867 273° West 91 105 3,100  Level Miami Center
21:13 27.5658 -80.2061 314° West 83 96 3,100  Level Miami Center
21:14 27.5831 -80.2172 330° Northwest 80 92 3,100  Level Miami Center
21:15 27.5789 -80.1906 100° East 95 109 3,100  Level Miami Center
21:16 27.5547 -80.1831 165° South 119 137 3,100  Level Miami Center
21:17 27.5653 -80.2083 295° West 92 106 3,100 -180 Level Miami Center
21:18 27.5822 -80.2250 319° Northwest 84 97 2,800 -540 Descending Miami Center
21:19 27.5922 -80.2514 293° West 92 106 2,100 -480 Descending Miami Center
21:20 27.6042 -80.2811 294° West 98 113 1,900 -120 Descending Miami Center
21:21 27.6150 -80.3122 291° West 100 115 1,900 -300 Level Miami Center
21:22 27.6239 -80.3383 291° West 98 113 1,400 -600 Descending Miami Center
21:23 27.6358 -80.3631 299° West 90 104 800 -420 Descending Miami Center
21:24 27.6442 -80.3872 291° West 89 102 600 -60 Descending Miami Center
21:25 27.6511 -80.4131 287° West 86 99 700 360 Climbing Miami Center
21:26 27.6708 -80.4200 343° North 76 87 1,400 540 Climbing Miami Center
21:28 27.6903 -80.4236 351° North 74 85 1,800 420 Climbing Miami Center
21:29 27.7108 -80.4261 354° North 73 84 2,300 480 Climbing Miami Center
21:30 27.7275 -80.4150 31° Northeast 71 82 2,800 420 Climbing Miami Center
21:31 27.7436 -80.4022 35° Northeast 72 83 3,200 420 Climbing Miami Center
21:32 27.7567 -80.3822 54° Northeast 73 84 3,700 420 Climbing Miami Center
21:33 27.7694 -80.3664 48° Northeast 74 85 4,100 180 Climbing Miami Center
21:34 27.7847 -80.3433 53° Northeast 85 98 4,100  Level Miami Center
21:35 27.7989 -80.3197 56° Northeast 87 100 4,100  Level Miami Center
21:36 27.7764 -80.3078 155° Southeast 117 135 4,100  Level Miami Center
21:37 27.7764 -80.3403 270° West 97 112 4,100  Level Miami Center
21:38 27.7525 -80.3431 186° South 118 136 4,200  Climbing Miami Center
21:39 27.7633 -80.3164 65° Northeast 89 102 4,200 -60 Level Miami Center
21:40 27.7325 -80.3156 179° South 122 140 4,100 -60 Descending Miami Center
21:41 27.7028 -80.3333 208° Southwest 122 140 4,100  Level Miami Center
21:42 27.6714 -80.3511 207° Southwest 122 140 4,100  Level Miami Center
21:43 27.6414 -80.3669 205° Southwest 122 140 4,100  Level Miami Center
21:44 27.6094 -80.3847 206° Southwest 122 140 4,100 -120 Level Miami Center
21:45 27.5808 -80.4075 215° Southwest 122 140 3,900 -540 Descending Miami Center
21:46 27.5619 -80.4333 230° Southwest 113 130 3,100 -420 Descending Miami Center
21:47 27.5556 -80.4661 258° West 103 119 3,100  Level Miami Center
21:48 27.5486 -80.4950 255° West 98 113 3,200  Climbing Miami Center
21:49 27.5422 -80.5258 257° West 98 113 3,100 -60 Descending Miami Center
21:50 27.5192 -80.5481 221° Southwest 108 124 3,100 -300 Level Miami Center
21:51 27.4981 -80.5333 148° Southeast 111 128 2,500 -600 Descending Miami Center